sensor_id;sensor_type;location;lat;lon;timestamp;P1;durP1;ratioP1;P2;durP2;ratioP2
40198;SDS011;25906;43.536;26.068;2023-05-10T00:00:36;14.45;;;8.68;;
40198;SDS011;25906;43.536;26.068;2023-05-10T00:03:21;12.88;;;8.52;;
40198;SDS011;25906;43.536;26.068;2023-05-10T00:06:07;13.35;;;8.15;;
40198;SDS011;25906;43.536;26.068;2023-05-10T00:08:52;9.60;;;7.35;;
40198;SDS011;25906;43.536;26.068;2023-05-10T00:11:37;12.27;;;7.53;;
40198;SDS011;25906;43.536;26.068;2023-05-10T00:14:23;13.57;;;7.95;;
40198;SDS011;25906;43.536;26.068;2023-05-10T00:17:08;10.18;;;7.65;;
40198;SDS011;25906;43.536;26.068;2023-05-10T00:19:54;15.20;;;7.93;;
40198;SDS011;25906;43.536;26.068;2023-05-10T00:22:39;14.40;;;7.82;;
40198;SDS011;25906;43.536;26.068;2023-05-10T00:25:25;9.63;;;6.93;;
40198;SDS011;25906;43.536;26.068;2023-05-10T00:28:10;9.45;;;6.40;;
40198;SDS011;25906;43.536;26.068;2023-05-10T00:30:55;11.18;;;6.35;;
40198;SDS011;25906;43.536;26.068;2023-05-10T00:33:41;16.35;;;6.57;;
40198;SDS011;25906;43.536;26.068;2023-05-10T00:36:26;13.48;;;6.53;;
40198;SDS011;25906;43.536;26.068;2023-05-10T00:39:12;12.18;;;6.15;;
40198;SDS011;25906;43.536;26.068;2023-05-10T00:41:58;10.57;;;5.90;;
40198;SDS011;25906;43.536;26.068;2023-05-10T00:44:44;8.38;;;5.75;;
40198;SDS011;25906;43.536;26.068;2023-05-10T00:47:29;9.80;;;6.32;;
40198;SDS011;25906;43.536;26.068;2023-05-10T00:50:16;11.43;;;5.88;;
40198;SDS011;25906;43.536;26.068;2023-05-10T00:53:01;15.77;;;5.97;;
40198;SDS011;25906;43.536;26.068;2023-05-10T00:55:47;7.15;;;5.43;;
40198;SDS011;25906;43.536;26.068;2023-05-10T00:58:33;9.60;;;5.55;;
40198;SDS011;25906;43.536;26.068;2023-05-10T01:01:19;10.73;;;5.60;;
40198;SDS011;25906;43.536;26.068;2023-05-10T01:04:04;8.30;;;5.70;;
40198;SDS011;25906;43.536;26.068;2023-05-10T01:06:49;10.05;;;5.47;;
40198;SDS011;25906;43.536;26.068;2023-05-10T01:09:35;10.45;;;5.03;;
40198;SDS011;25906;43.536;26.068;2023-05-10T01:12:20;7.05;;;5.00;;
40198;SDS011;25906;43.536;26.068;2023-05-10T01:15:06;9.60;;;4.80;;
40198;SDS011;25906;43.536;26.068;2023-05-10T01:17:54;7.80;;;4.90;;
40198;SDS011;25906;43.536;26.068;2023-05-10T01:20:41;7.25;;;4.63;;
40198;SDS011;25906;43.536;26.068;2023-05-10T01:29:49;6.78;;;4.53;;
40198;SDS011;25906;43.536;26.068;2023-05-10T01:35:56;6.22;;;4.30;;
40198;SDS011;25906;43.536;26.068;2023-05-10T01:38:49;7.18;;;4.30;;
40198;SDS011;25906;43.536;26.068;2023-05-10T01:41:46;5.63;;;4.32;;
40198;SDS011;25906;43.536;26.068;2023-05-10T01:48:06;5.93;;;4.32;;
40198;SDS011;25906;43.536;26.068;2023-05-10T01:50:53;5.53;;;4.22;;
40198;SDS011;25906;43.536;26.068;2023-05-10T01:53:40;6.40;;;3.97;;
40198;SDS011;25906;43.536;26.068;2023-05-10T01:56:29;10.18;;;4.38;;
40198;SDS011;25906;43.536;26.068;2023-05-10T01:59:17;7.53;;;4.47;;
40198;SDS011;25906;43.536;26.068;2023-05-10T02:02:04;10.02;;;3.88;;
40198;SDS011;25906;43.536;26.068;2023-05-10T02:04:50;8.60;;;4.35;;
40198;SDS011;25906;43.536;26.068;2023-05-10T02:07:38;5.32;;;4.30;;
40198;SDS011;25906;43.536;26.068;2023-05-10T02:13:09;7.22;;;3.55;;
40198;SDS011;25906;43.536;26.068;2023-05-10T02:15:56;6.45;;;3.92;;
40198;SDS011;25906;43.536;26.068;2023-05-10T02:18:42;8.18;;;3.72;;
40198;SDS011;25906;43.536;26.068;2023-05-10T02:21:29;10.73;;;4.88;;
40198;SDS011;25906;43.536;26.068;2023-05-10T02:24:15;5.65;;;4.07;;
40198;SDS011;25906;43.536;26.068;2023-05-10T02:27:02;7.18;;;4.65;;
40198;SDS011;25906;43.536;26.068;2023-05-10T02:29:48;9.35;;;4.72;;
40198;SDS011;25906;43.536;26.068;2023-05-10T02:32:36;5.20;;;4.05;;
40198;SDS011;25906;43.536;26.068;2023-05-10T02:38:07;7.13;;;3.67;;
40198;SDS011;25906;43.536;26.068;2023-05-10T02:40:54;6.05;;;4.07;;
40198;SDS011;25906;43.536;26.068;2023-05-10T02:43:39;5.70;;;4.15;;
40198;SDS011;25906;43.536;26.068;2023-05-10T02:46:26;8.23;;;4.15;;
40198;SDS011;25906;43.536;26.068;2023-05-10T02:49:12;6.65;;;4.45;;
40198;SDS011;25906;43.536;26.068;2023-05-10T02:51:59;9.88;;;4.75;;
40198;SDS011;25906;43.536;26.068;2023-05-10T02:54:48;12.77;;;4.30;;
40198;SDS011;25906;43.536;26.068;2023-05-10T02:57:35;8.93;;;4.70;;
40198;SDS011;25906;43.536;26.068;2023-05-10T03:00:26;7.68;;;4.32;;
40198;SDS011;25906;43.536;26.068;2023-05-10T03:03:11;10.05;;;4.55;;
40198;SDS011;25906;43.536;26.068;2023-05-10T03:05:57;6.97;;;4.68;;
40198;SDS011;25906;43.536;26.068;2023-05-10T03:08:43;6.97;;;4.20;;
40198;SDS011;25906;43.536;26.068;2023-05-10T03:11:42;8.05;;;4.00;;
40198;SDS011;25906;43.536;26.068;2023-05-10T03:14:39;10.60;;;4.22;;
40198;SDS011;25906;43.536;26.068;2023-05-10T03:20:47;10.73;;;4.45;;
40198;SDS011;25906;43.536;26.068;2023-05-10T03:23:35;6.57;;;4.47;;
40198;SDS011;25906;43.536;26.068;2023-05-10T03:26:24;8.32;;;4.25;;
40198;SDS011;25906;43.536;26.068;2023-05-10T03:29:13;13.82;;;4.50;;
40198;SDS011;25906;43.536;26.068;2023-05-10T03:32:00;6.55;;;4.35;;
40198;SDS011;25906;43.536;26.068;2023-05-10T03:34:46;7.25;;;5.28;;
40198;SDS011;25906;43.536;26.068;2023-05-10T03:37:31;9.75;;;4.57;;
40198;SDS011;25906;43.536;26.068;2023-05-10T03:40:16;5.57;;;4.43;;
40198;SDS011;25906;43.536;26.068;2023-05-10T03:43:02;5.70;;;4.07;;
40198;SDS011;25906;43.536;26.068;2023-05-10T03:45:47;11.73;;;3.80;;
40198;SDS011;25906;43.536;26.068;2023-05-10T03:48:33;6.35;;;4.45;;
40198;SDS011;25906;43.536;26.068;2023-05-10T03:51:18;7.70;;;3.92;;
40198;SDS011;25906;43.536;26.068;2023-05-10T03:54:04;6.63;;;3.90;;
40198;SDS011;25906;43.536;26.068;2023-05-10T03:56:49;8.35;;;3.88;;
40198;SDS011;25906;43.536;26.068;2023-05-10T03:59:35;7.93;;;4.30;;
40198;SDS011;25906;43.536;26.068;2023-05-10T04:02:20;4.82;;;3.35;;
40198;SDS011;25906;43.536;26.068;2023-05-10T04:05:06;9.45;;;4.20;;
40198;SDS011;25906;43.536;26.068;2023-05-10T04:07:51;5.00;;;3.65;;
40198;SDS011;25906;43.536;26.068;2023-05-10T04:10:37;6.32;;;3.70;;
40198;SDS011;25906;43.536;26.068;2023-05-10T04:13:22;8.63;;;3.88;;
40198;SDS011;25906;43.536;26.068;2023-05-10T04:16:08;6.45;;;3.53;;
40198;SDS011;25906;43.536;26.068;2023-05-10T04:18:53;7.07;;;3.80;;
40198;SDS011;25906;43.536;26.068;2023-05-10T04:21:39;7.43;;;3.63;;
40198;SDS011;25906;43.536;26.068;2023-05-10T04:24:24;7.43;;;3.20;;
40198;SDS011;25906;43.536;26.068;2023-05-10T04:27:10;5.85;;;3.38;;
40198;SDS011;25906;43.536;26.068;2023-05-10T04:29:56;6.45;;;3.53;;
40198;SDS011;25906;43.536;26.068;2023-05-10T04:32:42;7.70;;;3.95;;
40198;SDS011;25906;43.536;26.068;2023-05-10T04:35:27;5.60;;;4.47;;
40198;SDS011;25906;43.536;26.068;2023-05-10T04:38:13;6.63;;;3.88;;
40198;SDS011;25906;43.536;26.068;2023-05-10T04:41:05;5.68;;;4.10;;
40198;SDS011;25906;43.536;26.068;2023-05-10T04:43:55;7.70;;;3.80;;
40198;SDS011;25906;43.536;26.068;2023-05-10T04:46:41;4.65;;;3.50;;
40198;SDS011;25906;43.536;26.068;2023-05-10T04:49:26;6.35;;;3.00;;
40198;SDS011;25906;43.536;26.068;2023-05-10T04:52:12;6.35;;;3.38;;
40198;SDS011;25906;43.536;26.068;2023-05-10T04:54:57;4.20;;;3.03;;
40198;SDS011;25906;43.536;26.068;2023-05-10T04:57:42;8.13;;;3.28;;
40198;SDS011;25906;43.536;26.068;2023-05-10T05:00:28;8.85;;;4.22;;
40198;SDS011;25906;43.536;26.068;2023-05-10T05:03:13;10.05;;;4.57;;
40198;SDS011;25906;43.536;26.068;2023-05-10T05:05:59;7.47;;;4.03;;
40198;SDS011;25906;43.536;26.068;2023-05-10T05:08:44;7.90;;;4.25;;
40198;SDS011;25906;43.536;26.068;2023-05-10T05:11:29;6.60;;;4.13;;
40198;SDS011;25906;43.536;26.068;2023-05-10T05:14:15;5.60;;;3.65;;
40198;SDS011;25906;43.536;26.068;2023-05-10T05:17:00;6.63;;;3.95;;
40198;SDS011;25906;43.536;26.068;2023-05-10T05:19:46;6.30;;;3.95;;
40198;SDS011;25906;43.536;26.068;2023-05-10T05:22:31;4.60;;;3.58;;
40198;SDS011;25906;43.536;26.068;2023-05-10T05:25:16;5.93;;;4.07;;
40198;SDS011;25906;43.536;26.068;2023-05-10T05:28:02;7.57;;;4.63;;
40198;SDS011;25906;43.536;26.068;2023-05-10T05:30:47;9.48;;;4.18;;
40198;SDS011;25906;43.536;26.068;2023-05-10T05:33:33;7.82;;;4.40;;
40198;SDS011;25906;43.536;26.068;2023-05-10T05:36:19;7.80;;;4.18;;
40198;SDS011;25906;43.536;26.068;2023-05-10T05:39:04;5.45;;;3.97;;
40198;SDS011;25906;43.536;26.068;2023-05-10T05:41:50;7.97;;;4.07;;
40198;SDS011;25906;43.536;26.068;2023-05-10T05:44:35;8.20;;;4.28;;
40198;SDS011;25906;43.536;26.068;2023-05-10T05:47:21;6.75;;;4.65;;
40198;SDS011;25906;43.536;26.068;2023-05-10T05:50:06;7.45;;;3.78;;
40198;SDS011;25906;43.536;26.068;2023-05-10T05:52:52;5.57;;;3.95;;
40198;SDS011;25906;43.536;26.068;2023-05-10T05:55:37;7.90;;;4.53;;
40198;SDS011;25906;43.536;26.068;2023-05-10T05:58:23;5.95;;;4.03;;
40198;SDS011;25906;43.536;26.068;2023-05-10T06:01:08;7.82;;;4.43;;
40198;SDS011;25906;43.536;26.068;2023-05-10T06:03:53;8.52;;;4.28;;
40198;SDS011;25906;43.536;26.068;2023-05-10T06:06:39;4.57;;;3.38;;
40198;SDS011;25906;43.536;26.068;2023-05-10T06:09:24;6.63;;;3.63;;
40198;SDS011;25906;43.536;26.068;2023-05-10T06:12:10;6.75;;;3.03;;
40198;SDS011;25906;43.536;26.068;2023-05-10T06:14:57;9.13;;;3.42;;
40198;SDS011;25906;43.536;26.068;2023-05-10T06:17:42;12.02;;;3.60;;
40198;SDS011;25906;43.536;26.068;2023-05-10T06:20:29;9.25;;;3.92;;
40198;SDS011;25906;43.536;26.068;2023-05-10T06:23:16;6.30;;;3.75;;
40198;SDS011;25906;43.536;26.068;2023-05-10T06:26:01;6.57;;;3.25;;
40198;SDS011;25906;43.536;26.068;2023-05-10T06:28:47;5.97;;;3.00;;
40198;SDS011;25906;43.536;26.068;2023-05-10T06:31:32;3.40;;;2.65;;
40198;SDS011;25906;43.536;26.068;2023-05-10T06:34:18;7.63;;;2.88;;
40198;SDS011;25906;43.536;26.068;2023-05-10T06:37:03;3.08;;;2.65;;
40198;SDS011;25906;43.536;26.068;2023-05-10T06:39:49;4.55;;;2.80;;
40198;SDS011;25906;43.536;26.068;2023-05-10T06:42:34;5.53;;;2.80;;
40198;SDS011;25906;43.536;26.068;2023-05-10T06:45:19;9.93;;;2.80;;
40198;SDS011;25906;43.536;26.068;2023-05-10T06:50:50;5.30;;;3.00;;
40198;SDS011;25906;43.536;26.068;2023-05-10T06:53:36;4.25;;;2.40;;
40198;SDS011;25906;43.536;26.068;2023-05-10T06:56:21;4.50;;;2.70;;
40198;SDS011;25906;43.536;26.068;2023-05-10T06:59:07;4.50;;;2.10;;
40198;SDS011;25906;43.536;26.068;2023-05-10T07:01:52;3.83;;;2.20;;
40198;SDS011;25906;43.536;26.068;2023-05-10T07:04:38;2.58;;;2.33;;
40198;SDS011;25906;43.536;26.068;2023-05-10T07:07:24;3.25;;;2.45;;
40198;SDS011;25906;43.536;26.068;2023-05-10T07:10:10;7.97;;;3.25;;
40198;SDS011;25906;43.536;26.068;2023-05-10T07:12:55;3.15;;;2.35;;
40198;SDS011;25906;43.536;26.068;2023-05-10T07:15:40;3.67;;;2.30;;
40198;SDS011;25906;43.536;26.068;2023-05-10T07:18:27;3.95;;;3.00;;
40198;SDS011;25906;43.536;26.068;2023-05-10T07:23:58;3.13;;;2.47;;
40198;SDS011;25906;43.536;26.068;2023-05-10T07:26:45;8.02;;;3.03;;
40198;SDS011;25906;43.536;26.068;2023-05-10T07:29:30;4.22;;;2.75;;
40198;SDS011;25906;43.536;26.068;2023-05-10T07:32:15;4.30;;;2.92;;
40198;SDS011;25906;43.536;26.068;2023-05-10T07:35:01;5.82;;;3.33;;
40198;SDS011;25906;43.536;26.068;2023-05-10T07:37:46;5.10;;;2.50;;
40198;SDS011;25906;43.536;26.068;2023-05-10T07:40:32;4.13;;;2.53;;
40198;SDS011;25906;43.536;26.068;2023-05-10T07:43:17;4.35;;;2.92;;
40198;SDS011;25906;43.536;26.068;2023-05-10T07:46:03;5.03;;;3.35;;
40198;SDS011;25906;43.536;26.068;2023-05-10T07:48:48;3.33;;;2.85;;
40198;SDS011;25906;43.536;26.068;2023-05-10T07:51:34;3.17;;;2.50;;
40198;SDS011;25906;43.536;26.068;2023-05-10T07:54:19;2.88;;;2.60;;
40198;SDS011;25906;43.536;26.068;2023-05-10T07:57:04;3.45;;;2.53;;
40198;SDS011;25906;43.536;26.068;2023-05-10T07:59:50;6.88;;;3.20;;
40198;SDS011;25906;43.536;26.068;2023-05-10T08:02:35;4.88;;;3.13;;
40198;SDS011;25906;43.536;26.068;2023-05-10T08:05:21;6.47;;;3.20;;
40198;SDS011;25906;43.536;26.068;2023-05-10T08:08:06;3.30;;;2.95;;
40198;SDS011;25906;43.536;26.068;2023-05-10T08:10:52;4.93;;;2.47;;
40198;SDS011;25906;43.536;26.068;2023-05-10T08:13:37;3.70;;;2.90;;
40198;SDS011;25906;43.536;26.068;2023-05-10T08:16:23;8.95;;;3.40;;
40198;SDS011;25906;43.536;26.068;2023-05-10T08:19:08;3.35;;;2.92;;
40198;SDS011;25906;43.536;26.068;2023-05-10T08:21:53;5.25;;;2.80;;
40198;SDS011;25906;43.536;26.068;2023-05-10T08:24:40;11.13;;;2.97;;
40198;SDS011;25906;43.536;26.068;2023-05-10T08:27:26;4.43;;;2.97;;
40198;SDS011;25906;43.536;26.068;2023-05-10T08:30:12;3.60;;;2.70;;
40198;SDS011;25906;43.536;26.068;2023-05-10T08:32:58;3.22;;;2.85;;
40198;SDS011;25906;43.536;26.068;2023-05-10T08:35:43;4.00;;;2.88;;
40198;SDS011;25906;43.536;26.068;2023-05-10T08:38:28;3.67;;;2.85;;
40198;SDS011;25906;43.536;26.068;2023-05-10T08:41:14;3.97;;;2.92;;
40198;SDS011;25906;43.536;26.068;2023-05-10T08:43:59;3.13;;;2.40;;
40198;SDS011;25906;43.536;26.068;2023-05-10T08:46:49;3.42;;;2.60;;
40198;SDS011;25906;43.536;26.068;2023-05-10T08:49:38;7.82;;;3.03;;
40198;SDS011;25906;43.536;26.068;2023-05-10T08:55:10;7.70;;;2.67;;
40198;SDS011;25906;43.536;26.068;2023-05-10T08:57:55;3.55;;;2.95;;
40198;SDS011;25906;43.536;26.068;2023-05-10T09:00:41;3.45;;;2.47;;
40198;SDS011;25906;43.536;26.068;2023-05-10T09:03:27;5.40;;;2.92;;
40198;SDS011;25906;43.536;26.068;2023-05-10T09:06:12;7.07;;;2.90;;
40198;SDS011;25906;43.536;26.068;2023-05-10T09:08:58;4.90;;;2.78;;
40198;SDS011;25906;43.536;26.068;2023-05-10T09:11:44;8.73;;;2.85;;
40198;SDS011;25906;43.536;26.068;2023-05-10T09:14:31;5.53;;;2.92;;
40198;SDS011;25906;43.536;26.068;2023-05-10T09:17:20;4.68;;;2.65;;
40198;SDS011;25906;43.536;26.068;2023-05-10T09:20:08;4.80;;;3.08;;
40198;SDS011;25906;43.536;26.068;2023-05-10T09:22:53;9.77;;;3.45;;
40198;SDS011;25906;43.536;26.068;2023-05-10T09:25:40;4.00;;;2.90;;
40198;SDS011;25906;43.536;26.068;2023-05-10T09:28:26;4.53;;;2.60;;
40198;SDS011;25906;43.536;26.068;2023-05-10T09:31:12;4.47;;;2.95;;
40198;SDS011;25906;43.536;26.068;2023-05-10T09:33:57;3.50;;;2.63;;
40198;SDS011;25906;43.536;26.068;2023-05-10T09:36:53;9.23;;;3.38;;
40198;SDS011;25906;43.536;26.068;2023-05-10T09:39:42;3.72;;;2.72;;
40198;SDS011;25906;43.536;26.068;2023-05-10T09:42:27;4.13;;;2.78;;
40198;SDS011;25906;43.536;26.068;2023-05-10T09:45:13;9.90;;;3.00;;
40198;SDS011;25906;43.536;26.068;2023-05-10T09:47:59;4.00;;;3.00;;
40198;SDS011;25906;43.536;26.068;2023-05-10T09:50:45;5.10;;;2.78;;
40198;SDS011;25906;43.536;26.068;2023-05-10T09:53:41;4.30;;;2.55;;
40198;SDS011;25906;43.536;26.068;2023-05-10T09:59:24;3.53;;;2.67;;
40198;SDS011;25906;43.536;26.068;2023-05-10T10:02:11;6.57;;;3.15;;
40198;SDS011;25906;43.536;26.068;2023-05-10T10:04:57;2.88;;;2.53;;
40198;SDS011;25906;43.536;26.068;2023-05-10T10:07:43;3.25;;;2.67;;
40198;SDS011;25906;43.536;26.068;2023-05-10T10:13:15;5.00;;;2.80;;
40198;SDS011;25906;43.536;26.068;2023-05-10T10:16:02;2.92;;;2.63;;
40198;SDS011;25906;43.536;26.068;2023-05-10T10:21:33;3.47;;;2.50;;
40198;SDS011;25906;43.536;26.068;2023-05-10T10:24:18;3.50;;;2.85;;
40198;SDS011;25906;43.536;26.068;2023-05-10T10:30:40;2.40;;;2.20;;
40198;SDS011;25906;43.536;26.068;2023-05-10T10:33:36;4.30;;;2.30;;
40198;SDS011;25906;43.536;26.068;2023-05-10T10:36:28;2.35;;;2.15;;
40198;SDS011;25906;43.536;26.068;2023-05-10T10:39:14;3.25;;;2.45;;
40198;SDS011;25906;43.536;26.068;2023-05-10T10:42:00;11.38;;;2.50;;
40198;SDS011;25906;43.536;26.068;2023-05-10T10:44:48;4.55;;;2.17;;
40198;SDS011;25906;43.536;26.068;2023-05-10T10:47:33;3.17;;;2.10;;
40198;SDS011;25906;43.536;26.068;2023-05-10T10:50:19;7.15;;;2.42;;
40198;SDS011;25906;43.536;26.068;2023-05-10T10:53:11;4.15;;;2.50;;
40198;SDS011;25906;43.536;26.068;2023-05-10T10:58:56;6.90;;;3.00;;
40198;SDS011;25906;43.536;26.068;2023-05-10T11:01:44;5.10;;;2.67;;
40198;SDS011;25906;43.536;26.068;2023-05-10T11:04:42;2.58;;;1.60;;
40198;SDS011;25906;43.536;26.068;2023-05-10T11:07:31;2.20;;;1.98;;
40198;SDS011;25906;43.536;26.068;2023-05-10T11:10:19;4.47;;;1.55;;
40198;SDS011;25906;43.536;26.068;2023-05-10T11:13:06;2.05;;;1.83;;
40198;SDS011;25906;43.536;26.068;2023-05-10T11:15:53;3.28;;;1.80;;
40198;SDS011;25906;43.536;26.068;2023-05-10T11:18:38;3.30;;;1.92;;
40198;SDS011;25906;43.536;26.068;2023-05-10T11:24:14;5.28;;;2.95;;
40198;SDS011;25906;43.536;26.068;2023-05-10T11:27:01;5.07;;;2.10;;
40198;SDS011;25906;43.536;26.068;2023-05-10T11:29:50;2.90;;;2.05;;
40198;SDS011;25906;43.536;26.068;2023-05-10T11:32:40;2.80;;;2.03;;
40198;SDS011;25906;43.536;26.068;2023-05-10T11:35:27;2.30;;;2.10;;
40198;SDS011;25906;43.536;26.068;2023-05-10T11:38:13;2.00;;;1.80;;
40198;SDS011;25906;43.536;26.068;2023-05-10T11:40:59;2.30;;;2.10;;
40198;SDS011;25906;43.536;26.068;2023-05-10T11:43:45;3.58;;;2.08;;
40198;SDS011;25906;43.536;26.068;2023-05-10T11:46:33;3.80;;;1.90;;
40198;SDS011;25906;43.536;26.068;2023-05-10T11:49:20;2.83;;;2.03;;
40198;SDS011;25906;43.536;26.068;2023-05-10T11:52:08;2.17;;;1.98;;
40198;SDS011;25906;43.536;26.068;2023-05-10T11:54:53;3.22;;;1.95;;
40198;SDS011;25906;43.536;26.068;2023-05-10T11:57:40;4.00;;;1.95;;
40198;SDS011;25906;43.536;26.068;2023-05-10T12:00:26;3.17;;;2.30;;
40198;SDS011;25906;43.536;26.068;2023-05-10T12:03:12;5.25;;;2.10;;
40198;SDS011;25906;43.536;26.068;2023-05-10T12:08:45;3.20;;;1.63;;
40198;SDS011;25906;43.536;26.068;2023-05-10T12:11:31;3.13;;;2.03;;
40198;SDS011;25906;43.536;26.068;2023-05-10T12:14:17;3.13;;;2.08;;
40198;SDS011;25906;43.536;26.068;2023-05-10T12:17:04;3.88;;;2.10;;
40198;SDS011;25906;43.536;26.068;2023-05-10T12:19:49;4.35;;;2.08;;
40198;SDS011;25906;43.536;26.068;2023-05-10T12:22:35;2.35;;;2.00;;
40198;SDS011;25906;43.536;26.068;2023-05-10T12:25:21;2.63;;;2.10;;
40198;SDS011;25906;43.536;26.068;2023-05-10T12:28:08;3.95;;;2.38;;
40198;SDS011;25906;43.536;26.068;2023-05-10T12:30:54;4.00;;;2.08;;
40198;SDS011;25906;43.536;26.068;2023-05-10T12:33:41;5.07;;;2.20;;
40198;SDS011;25906;43.536;26.068;2023-05-10T12:36:27;6.63;;;2.25;;
40198;SDS011;25906;43.536;26.068;2023-05-10T12:39:13;7.75;;;1.67;;
40198;SDS011;25906;43.536;26.068;2023-05-10T12:41:58;3.95;;;1.80;;
40198;SDS011;25906;43.536;26.068;2023-05-10T12:44:43;2.92;;;1.88;;
40198;SDS011;25906;43.536;26.068;2023-05-10T12:47:29;3.92;;;1.88;;
40198;SDS011;25906;43.536;26.068;2023-05-10T12:53:00;6.63;;;2.20;;
40198;SDS011;25906;43.536;26.068;2023-05-10T12:55:45;3.25;;;2.30;;
40198;SDS011;25906;43.536;26.068;2023-05-10T12:58:31;2.67;;;2.00;;
40198;SDS011;25906;43.536;26.068;2023-05-10T13:01:16;2.33;;;1.80;;
40198;SDS011;25906;43.536;26.068;2023-05-10T13:04:02;3.35;;;2.00;;
40198;SDS011;25906;43.536;26.068;2023-05-10T13:06:47;2.40;;;2.20;;
40198;SDS011;25906;43.536;26.068;2023-05-10T13:09:32;4.60;;;2.15;;
40198;SDS011;25906;43.536;26.068;2023-05-10T13:12:18;6.15;;;1.98;;
40198;SDS011;25906;43.536;26.068;2023-05-10T13:15:03;3.97;;;2.10;;
40198;SDS011;25906;43.536;26.068;2023-05-10T13:20:34;2.40;;;2.13;;
40198;SDS011;25906;43.536;26.068;2023-05-10T13:23:20;2.85;;;2.20;;
40198;SDS011;25906;43.536;26.068;2023-05-10T13:26:05;4.35;;;2.40;;
40198;SDS011;25906;43.536;26.068;2023-05-10T13:28:50;4.00;;;1.95;;
40198;SDS011;25906;43.536;26.068;2023-05-10T13:31:36;3.45;;;2.33;;
40198;SDS011;25906;43.536;26.068;2023-05-10T13:34:22;2.95;;;1.98;;
40198;SDS011;25906;43.536;26.068;2023-05-10T13:37:07;2.30;;;2.10;;
40198;SDS011;25906;43.536;26.068;2023-05-10T13:39:52;2.72;;;2.15;;
40198;SDS011;25906;43.536;26.068;2023-05-10T13:42:38;6.03;;;2.60;;
40198;SDS011;25906;43.536;26.068;2023-05-10T13:45:23;6.50;;;2.53;;
40198;SDS011;25906;43.536;26.068;2023-05-10T13:48:09;4.10;;;2.22;;
40198;SDS011;25906;43.536;26.068;2023-05-10T13:50:54;6.30;;;2.80;;
40198;SDS011;25906;43.536;26.068;2023-05-10T13:53:39;6.07;;;2.42;;
40198;SDS011;25906;43.536;26.068;2023-05-10T13:56:25;3.00;;;2.60;;
40198;SDS011;25906;43.536;26.068;2023-05-10T13:59:10;4.15;;;2.50;;
40198;SDS011;25906;43.536;26.068;2023-05-10T14:01:56;3.42;;;2.20;;
40198;SDS011;25906;43.536;26.068;2023-05-10T14:04:41;5.78;;;2.58;;
40198;SDS011;25906;43.536;26.068;2023-05-10T14:07:27;3.65;;;2.25;;
40198;SDS011;25906;43.536;26.068;2023-05-10T14:10:12;3.42;;;2.13;;
40198;SDS011;25906;43.536;26.068;2023-05-10T14:12:58;2.60;;;2.10;;
40198;SDS011;25906;43.536;26.068;2023-05-10T14:15:43;3.35;;;2.30;;
40198;SDS011;25906;43.536;26.068;2023-05-10T14:18:28;3.03;;;2.22;;
40198;SDS011;25906;43.536;26.068;2023-05-10T14:21:14;3.28;;;2.28;;
40198;SDS011;25906;43.536;26.068;2023-05-10T14:26:45;3.40;;;2.65;;
40198;SDS011;25906;43.536;26.068;2023-05-10T14:29:31;6.70;;;2.92;;
40198;SDS011;25906;43.536;26.068;2023-05-10T14:32:16;2.53;;;2.33;;
40198;SDS011;25906;43.536;26.068;2023-05-10T14:35:02;2.65;;;2.45;;
40198;SDS011;25906;43.536;26.068;2023-05-10T14:37:47;4.50;;;2.53;;
40198;SDS011;25906;43.536;26.068;2023-05-10T14:40:33;4.57;;;2.60;;
40198;SDS011;25906;43.536;26.068;2023-05-10T14:43:19;4.05;;;2.53;;
40198;SDS011;25906;43.536;26.068;2023-05-10T14:46:04;5.75;;;2.58;;
40198;SDS011;25906;43.536;26.068;2023-05-10T14:48:50;5.55;;;2.53;;
40198;SDS011;25906;43.536;26.068;2023-05-10T14:51:35;3.92;;;2.58;;
40198;SDS011;25906;43.536;26.068;2023-05-10T14:54:21;5.55;;;2.80;;
40198;SDS011;25906;43.536;26.068;2023-05-10T14:57:07;4.72;;;2.53;;
40198;SDS011;25906;43.536;26.068;2023-05-10T14:59:52;2.60;;;2.38;;
40198;SDS011;25906;43.536;26.068;2023-05-10T15:02:38;2.90;;;2.60;;
40198;SDS011;25906;43.536;26.068;2023-05-10T15:05:23;3.30;;;2.72;;
40198;SDS011;25906;43.536;26.068;2023-05-10T15:08:09;2.60;;;2.30;;
40198;SDS011;25906;43.536;26.068;2023-05-10T15:10:54;4.00;;;2.33;;
40198;SDS011;25906;43.536;26.068;2023-05-10T15:13:40;2.85;;;2.55;;
40198;SDS011;25906;43.536;26.068;2023-05-10T15:16:26;3.28;;;2.90;;
40198;SDS011;25906;43.536;26.068;2023-05-10T15:19:11;9.10;;;4.43;;
40198;SDS011;25906;43.536;26.068;2023-05-10T15:21:57;18.30;;;8.02;;
40198;SDS011;25906;43.536;26.068;2023-05-10T15:24:42;18.50;;;8.35;;
40198;SDS011;25906;43.536;26.068;2023-05-10T15:27:27;11.93;;;6.82;;
40198;SDS011;25906;43.536;26.068;2023-05-10T15:30:13;8.90;;;3.00;;
40198;SDS011;25906;43.536;26.068;2023-05-10T15:32:58;2.97;;;2.67;;
40198;SDS011;25906;43.536;26.068;2023-05-10T15:35:44;3.05;;;2.70;;
40198;SDS011;25906;43.536;26.068;2023-05-10T15:38:29;2.92;;;2.47;;
40198;SDS011;25906;43.536;26.068;2023-05-10T15:41:16;4.70;;;2.30;;
40198;SDS011;25906;43.536;26.068;2023-05-10T15:44:02;4.95;;;3.65;;
40198;SDS011;25906;43.536;26.068;2023-05-10T15:46:47;3.03;;;2.50;;
40198;SDS011;25906;43.536;26.068;2023-05-10T15:49:33;4.50;;;2.33;;
40198;SDS011;25906;43.536;26.068;2023-05-10T15:52:19;6.43;;;2.33;;
40198;SDS011;25906;43.536;26.068;2023-05-10T15:55:05;6.32;;;2.53;;
40198;SDS011;25906;43.536;26.068;2023-05-10T15:57:56;6.10;;;2.58;;
40198;SDS011;25906;43.536;26.068;2023-05-10T16:00:42;5.90;;;2.72;;
40198;SDS011;25906;43.536;26.068;2023-05-10T16:03:27;4.47;;;2.60;;
40198;SDS011;25906;43.536;26.068;2023-05-10T16:06:13;6.10;;;2.67;;
40198;SDS011;25906;43.536;26.068;2023-05-10T16:08:58;5.00;;;2.45;;
40198;SDS011;25906;43.536;26.068;2023-05-10T16:11:44;3.08;;;2.78;;
40198;SDS011;25906;43.536;26.068;2023-05-10T16:14:29;3.78;;;2.55;;
40198;SDS011;25906;43.536;26.068;2023-05-10T16:17:15;7.82;;;2.78;;
40198;SDS011;25906;43.536;26.068;2023-05-10T16:20:00;3.38;;;2.80;;
40198;SDS011;25906;43.536;26.068;2023-05-10T16:22:45;5.00;;;2.78;;
40198;SDS011;25906;43.536;26.068;2023-05-10T16:25:31;3.80;;;2.50;;
40198;SDS011;25906;43.536;26.068;2023-05-10T16:28:17;4.95;;;2.30;;
40198;SDS011;25906;43.536;26.068;2023-05-10T16:31:04;4.53;;;2.40;;
40198;SDS011;25906;43.536;26.068;2023-05-10T16:33:50;3.85;;;2.72;;
40198;SDS011;25906;43.536;26.068;2023-05-10T16:36:35;3.03;;;2.20;;
40198;SDS011;25906;43.536;26.068;2023-05-10T16:39:21;4.07;;;2.90;;
40198;SDS011;25906;43.536;26.068;2023-05-10T16:42:06;5.95;;;2.60;;
40198;SDS011;25906;43.536;26.068;2023-05-10T16:44:52;6.18;;;2.80;;
40198;SDS011;25906;43.536;26.068;2023-05-10T16:47:38;4.80;;;2.88;;
40198;SDS011;25906;43.536;26.068;2023-05-10T16:50:24;5.43;;;2.47;;
40198;SDS011;25906;43.536;26.068;2023-05-10T16:53:10;4.80;;;2.47;;
40198;SDS011;25906;43.536;26.068;2023-05-10T16:55:58;4.03;;;2.60;;
40198;SDS011;25906;43.536;26.068;2023-05-10T16:58:43;5.97;;;2.70;;
40198;SDS011;25906;43.536;26.068;2023-05-10T17:01:32;6.65;;;2.80;;
40198;SDS011;25906;43.536;26.068;2023-05-10T17:04:17;4.63;;;2.97;;
40198;SDS011;25906;43.536;26.068;2023-05-10T17:07:03;5.40;;;2.70;;
40198;SDS011;25906;43.536;26.068;2023-05-10T17:09:48;4.38;;;3.08;;
40198;SDS011;25906;43.536;26.068;2023-05-10T17:12:34;3.65;;;3.00;;
40198;SDS011;25906;43.536;26.068;2023-05-10T17:15:19;5.75;;;3.00;;
40198;SDS011;25906;43.536;26.068;2023-05-10T17:18:05;7.55;;;3.20;;
40198;SDS011;25906;43.536;26.068;2023-05-10T17:23:36;3.60;;;2.83;;
40198;SDS011;25906;43.536;26.068;2023-05-10T17:26:22;8.93;;;3.15;;